createdAt,value
2018-04-14T00:00:12.638Z,34.17
2018-04-14T00:02:40.681Z,34.23
2018-04-14T00:05:08.672Z,35.07
2018-04-14T00:07:36.603Z,33.90
2018-04-14T00:10:04.828Z,33.60
2018-04-14T00:12:32.799Z,35.83
2018-04-14T00:15:00.752Z,33.80
2018-04-14T00:17:30.660Z,34.50
2018-04-14T00:19:58.570Z,38.27
2018-04-14T00:22:26.499Z,39.60
2018-04-14T00:24:54.453Z,36.47
2018-04-14T00:27:22.440Z,35.80
2018-04-14T00:29:50.352Z,38.93
2018-04-14T00:32:18.359Z,35.80
2018-04-14T00:34:46.343Z,35.93
2018-04-14T00:37:14.353Z,35.20
2018-04-14T00:39:42.398Z,36.03
2018-04-14T00:42:10.332Z,36.37
2018-04-14T00:44:38.341Z,36.43
2018-04-14T00:47:06.267Z,39.37
2018-04-14T00:49:34.310Z,39.77
2018-04-14T00:52:02.247Z,39.90
2018-04-14T00:54:30.249Z,39.70
2018-04-14T00:56:58.187Z,37.07
2018-04-14T00:59:26.093Z,39.00
2018-04-14T01:01:54.088Z,36.47
2018-04-14T01:04:22.061Z,40.50
2018-04-14T01:06:50.079Z,37.90
2018-04-14T01:09:18.112Z,38.73
2018-04-14T01:11:46.040Z,37.93
2018-04-14T01:14:13.966Z,38.60
2018-04-14T01:16:41.933Z,39.00
2018-04-14T01:19:09.891Z,38.60
2018-04-14T01:21:37.898Z,37.27
2018-04-14T01:24:05.867Z,38.80
2018-04-14T01:26:33.754Z,39.30
2018-04-14T01:29:02.021Z,40.40
2018-04-14T01:31:29.989Z,40.23
2018-04-14T01:33:57.910Z,39.17
2018-04-14T01:36:25.854Z,40.47
2018-04-14T01:38:53.772Z,40.43
2018-04-14T01:41:21.689Z,39.13
2018-04-14T01:43:49.619Z,42.30
2018-04-14T01:46:17.555Z,38.73
2018-04-14T01:48:45.543Z,42.60
2018-04-14T01:51:13.467Z,42.03
2018-04-14T01:53:41.396Z,41.03
2018-04-14T01:56:09.343Z,39.97
2018-04-14T01:58:37.295Z,41.93
2018-04-14T02:01:05.232Z,42.00
2018-04-14T02:03:33.148Z,41.93
2018-04-14T02:06:01.076Z,42.00
2018-04-14T02:08:29.011Z,39.13
2018-04-14T02:10:56.948Z,40.60
2018-04-14T02:13:24.876Z,41.70
2018-04-14T02:15:52.815Z,43.73
2018-04-14T02:18:20.752Z,43.10
2018-04-14T02:20:48.663Z,40.40
2018-04-14T02:23:16.594Z,43.10
2018-04-14T02:25:44.665Z,43.00
2018-04-14T02:28:12.592Z,43.67
2018-04-14T02:30:40.505Z,42.33
2018-04-14T02:33:08.411Z,43.70
2018-04-14T02:35:36.341Z,43.80
2018-04-14T02:38:04.292Z,44.47
2018-04-14T02:40:32.207Z,43.53
2018-04-14T02:43:00.135Z,44.43
2018-04-14T02:45:28.056Z,43.03
2018-04-14T02:47:56.097Z,43.70
2018-04-14T02:50:24.014Z,43.70
2018-04-14T02:52:51.955Z,45.47
2018-04-14T02:55:19.883Z,44.03
2018-04-14T02:57:47.813Z,42.40
2018-04-14T03:00:15.796Z,40.27
2018-04-14T03:02:43.863Z,40.67
2018-04-14T03:05:11.918Z,41.27
2018-04-14T03:07:39.972Z,43.20
2018-04-14T03:10:07.884Z,44.27
2018-04-14T03:12:36.023Z,43.00
2018-04-14T03:15:03.922Z,43.83
2018-04-14T03:17:31.867Z,44.67
2018-04-14T03:19:59.821Z,42.47
2018-04-14T03:22:27.887Z,41.33
2018-04-14T03:24:56.011Z,43.20
2018-04-14T03:27:23.948Z,44.13
2018-04-14T03:29:51.918Z,45.77
2018-04-14T03:32:19.818Z,46.73
2018-04-14T03:34:47.751Z,42.63
2018-04-14T03:37:15.723Z,44.63
2018-04-14T03:39:43.625Z,47.33
2018-04-14T03:42:11.623Z,45.60
2018-04-14T03:44:39.531Z,46.07
2018-04-14T03:47:07.459Z,49.77
2018-04-14T03:49:35.382Z,47.13
2018-04-14T03:52:03.307Z,47.50
2018-04-14T03:54:31.239Z,44.67
2018-04-14T03:56:59.150Z,44.80
2018-04-14T03:59:27.099Z,45.53
2018-04-14T04:01:55.022Z,45.00
2018-04-14T04:04:22.952Z,43.80
2018-04-14T04:06:50.881Z,43.70
2018-04-14T04:09:18.875Z,45.40
2018-04-14T04:11:46.777Z,45.67
2018-04-14T04:14:14.695Z,47.17
2018-04-14T04:16:42.640Z,46.70
2018-04-14T04:19:22.367Z,48.47
2018-04-14T04:22:02.166Z,45.77
2018-04-14T04:27:27.390Z,44.27
2018-04-14T04:29:55.335Z,43.47
2018-04-14T04:32:23.270Z,47.47
2018-04-14T04:34:51.188Z,44.47
2018-04-14T04:37:19.108Z,43.50
2018-04-14T04:39:47.023Z,46.63
2018-04-14T04:42:14.975Z,44.77
2018-04-14T04:44:42.930Z,44.03
2018-04-14T04:47:10.906Z,45.70
2018-04-14T04:49:38.810Z,46.40
2018-04-14T04:52:06.785Z,44.50
2018-04-14T04:54:34.686Z,44.73
2018-04-14T04:57:02.696Z,44.40
2018-04-14T04:59:30.643Z,45.20
2018-04-14T05:01:58.577Z,46.70
2018-04-14T05:04:26.502Z,43.27
2018-04-14T05:06:54.428Z,46.30
2018-04-14T05:09:22.359Z,46.30
2018-04-14T05:11:50.290Z,48.50
2018-04-14T05:14:18.222Z,50.97
2018-04-14T05:16:46.165Z,48.47
2018-04-14T05:19:14.099Z,49.10
2018-04-14T05:21:42.036Z,50.63
2018-04-14T05:24:09.984Z,54.00
2018-04-14T05:26:37.897Z,50.33
2018-04-14T05:29:05.829Z,52.70
2018-04-14T05:31:33.780Z,50.83
2018-04-14T05:34:01.713Z,52.57
2018-04-14T05:36:29.624Z,54.63
2018-04-14T05:38:57.581Z,60.40
2018-04-14T05:41:26.300Z,63.23
2018-04-14T05:43:54.316Z,61.27
2018-04-14T05:46:22.250Z,65.33
2018-04-14T05:48:50.176Z,66.83
2018-04-14T05:51:18.149Z,63.27
2018-04-14T05:53:46.082Z,66.50
2018-04-14T05:56:13.996Z,66.30
2018-04-14T05:58:41.934Z,68.07
2018-04-14T06:01:09.875Z,69.00
2018-04-14T06:03:37.792Z,67.17
2018-04-14T06:06:05.707Z,69.20
2018-04-14T06:08:33.643Z,69.07
2018-04-14T06:11:01.538Z,65.47
2018-04-14T06:13:29.464Z,66.07
2018-04-14T06:15:57.422Z,60.50
2018-04-14T06:18:25.530Z,64.37
2018-04-14T06:20:53.539Z,65.40
2018-04-14T06:23:21.535Z,65.50
2018-04-14T06:25:49.483Z,69.53
2018-04-14T06:28:17.601Z,67.83
2018-04-14T06:30:45.548Z,67.93
2018-04-14T06:33:13.516Z,69.30
2018-04-14T06:35:42.011Z,65.20
2018-04-14T06:38:09.942Z,63.70
2018-04-14T06:40:37.886Z,69.73
2018-04-14T06:43:06.791Z,71.83
2018-04-14T06:45:34.751Z,66.97
2018-04-14T06:48:02.715Z,65.77
2018-04-14T06:50:30.686Z,67.07
2018-04-14T06:52:58.657Z,68.40
2018-04-14T06:55:26.595Z,64.77
2018-04-14T06:57:54.528Z,67.10
2018-04-14T07:00:22.540Z,64.33
2018-04-14T07:02:50.537Z,59.70
2018-04-14T07:05:18.464Z,61.53
2018-04-14T07:07:46.404Z,62.47
2018-04-14T07:10:14.355Z,61.30
2018-04-14T07:12:42.297Z,58.57
2018-04-14T07:15:10.211Z,60.57
2018-04-14T07:17:38.197Z,59.10
2018-04-14T07:20:06.115Z,59.40
2018-04-14T07:22:34.054Z,54.20
2018-04-14T07:25:01.995Z,52.37
2018-04-14T07:27:29.960Z,53.90
2018-04-14T07:29:57.947Z,59.70
2018-04-14T07:32:25.919Z,58.83
2018-04-14T07:34:53.972Z,63.50
2018-04-14T07:37:21.881Z,63.20
2018-04-14T07:39:50.102Z,60.93
2018-04-14T07:42:18.245Z,64.33
2018-04-14T07:44:46.147Z,66.97
2018-04-14T07:47:14.083Z,69.30
2018-04-14T07:49:41.983Z,65.17
2018-04-14T07:52:09.887Z,63.17
2018-04-14T07:54:37.809Z,63.97
2018-04-14T07:57:05.719Z,60.00
2018-04-14T07:59:33.668Z,57.53
2018-04-14T08:02:01.582Z,61.03
2018-04-14T08:04:29.523Z,55.67
2018-04-14T08:06:57.450Z,55.37
2018-04-14T08:09:25.372Z,52.27
2018-04-14T08:11:53.333Z,55.23
2018-04-14T08:14:22.106Z,56.33
2018-04-14T08:16:50.076Z,57.53
2018-04-14T08:19:18.011Z,58.30
2018-04-14T08:21:45.927Z,60.07
2018-04-14T08:24:14.011Z,55.10
2018-04-14T08:26:41.964Z,55.37
2018-04-14T08:29:09.870Z,53.50
2018-04-14T08:31:37.791Z,53.33
2018-04-14T08:34:05.716Z,51.37
2018-04-14T08:36:33.648Z,55.80
2018-04-14T08:39:01.581Z,54.83
2018-04-14T08:41:29.488Z,54.07
2018-04-14T08:43:57.418Z,50.70
2018-04-14T08:46:25.359Z,50.37
2018-04-14T08:48:53.280Z,50.80
2018-04-14T08:51:21.184Z,50.80
2018-04-14T08:53:49.155Z,47.63
2018-04-14T08:56:17.079Z,45.07
2018-04-14T08:58:45.094Z,40.13
2018-04-14T09:01:12.986Z,35.63
2018-04-14T09:03:40.892Z,31.13
2018-04-14T09:06:08.819Z,29.97
2018-04-14T09:08:36.748Z,31.53
2018-04-14T09:11:04.715Z,29.73
2018-04-14T09:13:32.667Z,28.60
2018-04-14T09:16:00.562Z,28.43
2018-04-14T09:18:28.546Z,32.07
2018-04-14T09:20:56.467Z,30.27
2018-04-14T09:23:24.458Z,29.67
2018-04-14T09:25:52.372Z,28.07
2018-04-14T09:28:20.312Z,27.77
2018-04-14T09:30:48.237Z,25.67
2018-04-14T09:33:16.204Z,24.80
2018-04-14T09:35:44.108Z,26.23
2018-04-14T09:38:12.639Z,26.13
2018-04-14T09:40:40.579Z,25.50
2018-04-14T09:43:08.546Z,23.27
2018-04-14T09:45:36.463Z,26.20
2018-04-14T09:48:04.380Z,24.60
2018-04-14T09:50:33.427Z,23.67
2018-04-14T09:53:01.364Z,24.90
2018-04-14T09:55:29.265Z,26.13
2018-04-14T09:57:57.184Z,24.33
2018-04-14T10:00:27.009Z,24.27
2018-04-14T10:02:59.876Z,22.57
2018-04-14T10:05:27.754Z,20.90
2018-04-14T10:07:55.696Z,20.40
2018-04-14T10:10:23.643Z,20.67
2018-04-14T10:12:51.555Z,18.63
2018-04-14T10:15:19.479Z,17.97
2018-04-14T10:17:47.491Z,17.53
2018-04-14T10:20:15.419Z,19.10
2018-04-14T10:22:43.397Z,18.57
2018-04-14T10:25:11.315Z,18.20
2018-04-14T10:27:39.239Z,16.67
2018-04-14T10:30:07.263Z,16.40
2018-04-14T10:32:35.535Z,15.53
2018-04-14T10:35:03.488Z,15.43
2018-04-14T10:37:31.426Z,15.53
2018-04-14T10:39:59.399Z,14.07
2018-04-14T10:42:27.345Z,13.93
2018-04-14T10:44:55.348Z,13.97
2018-04-14T10:47:23.275Z,11.27
2018-04-14T10:49:51.282Z,11.97
2018-04-14T10:52:19.191Z,12.97
2018-04-14T10:54:47.116Z,12.83
2018-04-14T10:57:15.664Z,12.47
2018-04-14T10:59:43.619Z,13.43
2018-04-14T11:02:11.553Z,12.77
2018-04-14T11:04:40.396Z,12.23
2018-04-14T11:07:08.443Z,13.60
2018-04-14T11:09:36.486Z,12.13
2018-04-14T11:12:04.503Z,12.73
2018-04-14T11:14:32.660Z,12.50
2018-04-14T11:17:00.642Z,12.70
2018-04-14T11:19:28.684Z,14.07
2018-04-14T11:21:56.627Z,13.33
2018-04-14T11:24:24.590Z,12.00
2018-04-14T11:26:52.549Z,13.40
2018-04-14T11:29:20.658Z,13.33
2018-04-14T11:31:48.577Z,12.23
2018-04-14T11:34:16.523Z,11.40
2018-04-14T11:36:44.458Z,11.47
2018-04-14T11:39:12.400Z,12.00
2018-04-14T11:41:40.329Z,11.17
2018-04-14T11:44:08.276Z,10.40
2018-04-14T11:46:36.192Z,9.63
2018-04-14T11:49:04.175Z,10.47
2018-04-14T11:51:32.104Z,8.03
2018-04-14T11:54:00.041Z,9.20
2018-04-14T11:56:27.961Z,9.43
2018-04-14T11:58:55.897Z,8.33
2018-04-14T12:01:23.842Z,9.80
2018-04-14T12:03:51.796Z,7.37
2018-04-14T12:06:20.060Z,7.63
2018-04-14T12:08:48.075Z,8.40
2018-04-14T12:11:16.034Z,7.60
2018-04-14T12:13:43.977Z,8.07
2018-04-14T12:16:11.906Z,7.40
2018-04-14T12:18:39.841Z,7.67
2018-04-14T12:21:07.767Z,6.97
2018-04-14T12:23:35.693Z,6.33
2018-04-14T12:26:03.647Z,5.80
2018-04-14T12:28:31.554Z,5.23
2018-04-14T12:30:59.556Z,7.20
2018-04-14T12:33:27.488Z,5.53
2018-04-14T12:35:55.427Z,6.70
2018-04-14T12:38:23.368Z,6.40
2018-04-14T12:40:51.264Z,6.13
2018-04-14T12:43:21.222Z,6.87
2018-04-14T12:45:49.185Z,6.03
2018-04-14T12:48:17.101Z,6.60
2018-04-14T12:50:45.759Z,6.70
2018-04-14T12:53:13.685Z,5.70
2018-04-14T12:55:41.600Z,6.37
2018-04-14T12:58:09.813Z,5.90
2018-04-14T13:00:37.966Z,6.07
2018-04-14T13:03:05.892Z,7.23
2018-04-14T13:05:35.471Z,7.10
2018-04-14T13:08:03.413Z,6.07
2018-04-14T13:10:31.681Z,6.50
2018-04-14T13:12:59.595Z,7.60
2018-04-14T13:15:27.528Z,6.30
2018-04-14T13:17:55.495Z,6.43
2018-04-14T13:20:23.427Z,7.17
2018-04-14T13:22:51.340Z,6.40
2018-04-14T13:25:19.272Z,6.63
2018-04-14T13:27:47.230Z,6.23
2018-04-14T13:30:15.146Z,6.33
2018-04-14T13:32:43.055Z,6.13
2018-04-14T13:35:10.979Z,7.57
2018-04-14T13:37:38.931Z,6.47
2018-04-14T13:40:06.848Z,7.50
2018-04-14T13:42:34.811Z,5.77
2018-04-14T13:45:02.697Z,6.37
2018-04-14T13:47:30.602Z,6.43
2018-04-14T13:49:58.523Z,5.70
2018-04-14T13:52:26.419Z,5.50
2018-04-14T13:54:54.348Z,6.00
2018-04-14T13:57:22.325Z,5.73
2018-04-14T13:59:50.287Z,5.83
2018-04-14T14:02:18.325Z,5.97
2018-04-14T14:04:46.229Z,6.23
2018-04-14T14:07:14.164Z,6.23
2018-04-14T14:09:42.070Z,7.03
2018-04-14T14:12:09.985Z,7.30
2018-04-14T14:14:37.907Z,7.00
2018-04-14T14:17:05.839Z,5.97
2018-04-14T14:19:33.760Z,6.33
2018-04-14T14:22:01.679Z,6.40
2018-04-14T14:24:29.606Z,6.40
2018-04-14T14:26:57.523Z,6.40
2018-04-14T14:29:25.421Z,6.33
2018-04-14T14:31:53.344Z,7.67
2018-04-14T14:34:21.266Z,6.70
2018-04-14T14:36:49.944Z,7.70
2018-04-14T14:39:17.929Z,7.70
2018-04-14T14:41:45.827Z,7.37
2018-04-14T14:44:13.772Z,7.30
2018-04-14T14:46:41.698Z,7.70
2018-04-14T14:49:09.635Z,7.10
2018-04-14T14:51:37.595Z,7.50
2018-04-14T14:54:05.492Z,7.23
2018-04-14T14:56:33.413Z,6.80
2018-04-14T14:59:01.376Z,6.37
2018-04-14T15:01:29.316Z,5.70
2018-04-14T15:03:57.240Z,6.30
2018-04-14T15:06:25.193Z,7.57
2018-04-14T15:08:53.095Z,7.73
2018-04-14T15:11:21.037Z,6.83
2018-04-14T15:13:48.973Z,6.50
2018-04-14T15:16:16.914Z,5.40
2018-04-14T15:18:44.799Z,6.90
2018-04-14T15:21:12.794Z,6.30
2018-04-14T15:23:40.695Z,5.87
2018-04-14T15:26:08.598Z,7.40
2018-04-14T15:28:36.502Z,6.60
2018-04-14T15:31:04.423Z,6.60
2018-04-14T15:33:32.369Z,6.20
2018-04-14T15:36:00.261Z,7.10
2018-04-14T15:38:28.207Z,7.00
2018-04-14T15:40:56.119Z,6.93
2018-04-14T15:43:24.023Z,7.93
2018-04-14T15:45:51.941Z,7.80
2018-04-14T15:48:19.839Z,6.43
2018-04-14T15:50:47.749Z,7.17
2018-04-14T15:53:15.652Z,6.80
2018-04-14T15:55:43.557Z,7.13
2018-04-14T15:58:11.477Z,8.13
2018-04-14T16:00:39.357Z,8.43
2018-04-14T16:03:07.267Z,9.70
2018-04-14T16:05:35.196Z,7.70
2018-04-14T16:08:03.101Z,7.50
2018-04-14T16:10:31.048Z,7.20
2018-04-14T16:12:58.960Z,7.60
2018-04-14T16:15:26.868Z,7.27
2018-04-14T16:17:54.791Z,12.97
2018-04-14T16:20:22.703Z,8.80
2018-04-14T16:22:50.639Z,8.50
2018-04-14T16:25:18.551Z,8.03
2018-04-14T16:27:46.580Z,9.97
2018-04-14T16:30:14.493Z,9.73
2018-04-14T16:32:42.416Z,10.47
2018-04-14T16:35:10.324Z,10.47
2018-04-14T16:37:38.237Z,10.63
2018-04-14T16:40:06.170Z,10.67
2018-04-14T16:42:34.143Z,11.13
2018-04-14T16:45:02.077Z,10.10
2018-04-14T16:47:29.992Z,10.07
2018-04-14T16:49:57.905Z,12.30
2018-04-14T16:52:25.810Z,10.10
2018-04-14T16:54:53.814Z,10.17
2018-04-14T16:57:21.753Z,9.67
2018-04-14T16:59:49.702Z,10.17
2018-04-14T17:02:17.765Z,9.90
2018-04-14T17:04:46.413Z,10.20
2018-04-14T17:07:15.574Z,9.23
2018-04-14T17:09:43.542Z,8.63
2018-04-14T17:12:11.499Z,9.23
2018-04-14T17:14:39.455Z,10.73
2018-04-14T17:17:07.567Z,10.33
2018-04-14T17:19:35.486Z,10.70
2018-04-14T17:22:03.585Z,12.50
2018-04-14T17:24:31.527Z,11.27
2018-04-14T17:26:59.451Z,24.67
2018-04-14T17:29:28.084Z,14.10
2018-04-14T17:31:56.121Z,13.80
2018-04-14T17:34:24.137Z,13.60
2018-04-14T17:36:55.549Z,14.57
2018-04-14T17:39:24.207Z,14.20
2018-04-14T17:41:52.234Z,16.77
2018-04-14T17:44:20.225Z,15.50
2018-04-14T17:46:48.095Z,17.60
2018-04-14T17:49:16.237Z,17.40
2018-04-14T17:51:44.200Z,18.00
2018-04-14T17:54:12.377Z,18.20
2018-04-14T17:59:14.607Z,17.23
2018-04-14T18:01:42.554Z,18.00
2018-04-14T18:04:10.629Z,18.60
2018-04-14T18:06:38.602Z,20.07
2018-04-14T18:09:06.545Z,22.37
2018-04-14T18:11:35.318Z,20.57
2018-04-14T18:14:03.920Z,22.07
2018-04-14T18:16:32.238Z,21.10
2018-04-14T18:19:00.330Z,21.70
2018-04-14T18:21:28.260Z,23.97
2018-04-14T18:23:56.248Z,24.97
2018-04-14T18:26:24.270Z,23.43
2018-04-14T18:28:53.390Z,26.50
2018-04-14T18:31:22.339Z,27.43
2018-04-14T18:33:53.650Z,26.03
2018-04-14T18:36:21.743Z,27.13
2018-04-14T18:38:50.966Z,29.70
2018-04-14T18:41:19.080Z,29.33
2018-04-14T18:43:47.208Z,29.93
2018-04-14T18:46:15.309Z,28.57
2018-04-14T18:48:44.836Z,28.57
2018-04-14T18:51:12.877Z,29.73
2018-04-14T18:53:41.573Z,28.97
2018-04-14T18:56:09.643Z,27.57
2018-04-14T18:58:37.945Z,29.57
2018-04-14T19:01:06.638Z,28.63
2018-04-14T19:03:35.089Z,30.40
2018-04-14T19:06:03.382Z,29.27
2018-04-14T19:08:32.701Z,28.90
2018-04-14T19:11:00.772Z,28.27
2018-04-14T19:13:29.734Z,32.97
2018-04-14T19:15:57.864Z,30.17
2018-04-14T19:18:26.019Z,29.93
2018-04-14T19:20:54.407Z,29.97
2018-04-14T19:23:24.479Z,30.97
2018-04-14T19:25:53.420Z,29.27
2018-04-14T19:28:21.487Z,27.17
2018-04-14T19:30:50.371Z,28.50
2018-04-14T19:33:18.427Z,29.00
2018-04-14T19:35:46.426Z,29.40
2018-04-14T19:38:15.017Z,27.20
2018-04-14T19:40:42.985Z,31.37
2018-04-14T19:43:11.038Z,27.93
2018-04-14T19:45:39.032Z,30.77
2018-04-14T19:48:07.920Z,29.17
2018-04-14T19:50:36.840Z,30.03
2018-04-14T19:53:06.292Z,28.77
2018-04-14T19:55:35.525Z,26.17
2018-04-14T19:58:03.910Z,28.30
2018-04-14T20:00:33.042Z,31.57
2018-04-14T20:03:02.500Z,27.97
2018-04-14T20:05:30.589Z,29.37
2018-04-14T20:07:58.578Z,31.50
2018-04-14T20:10:27.967Z,30.67
2018-04-14T20:12:57.027Z,32.13
2018-04-14T20:15:25.239Z,32.63
2018-04-14T20:17:53.694Z,29.63
2018-04-14T20:20:21.795Z,30.40
2018-04-14T20:22:49.872Z,29.43
2018-04-14T20:25:17.906Z,31.93
2018-04-14T20:27:45.874Z,32.40
2018-04-14T20:30:14.919Z,32.33
2018-04-14T20:32:42.992Z,32.57
2018-04-14T20:35:10.957Z,32.07
2018-04-14T20:37:38.936Z,33.87
2018-04-14T20:40:06.917Z,34.33
2018-04-14T20:42:35.116Z,31.77
2018-04-14T20:45:03.194Z,31.73
2018-04-14T20:47:31.158Z,35.27
2018-04-14T20:49:59.138Z,35.93
2018-04-14T20:52:27.196Z,33.50
2018-04-14T20:54:55.319Z,35.53
2018-04-14T20:57:23.370Z,39.33
2018-04-14T20:59:51.391Z,38.40
2018-04-14T21:02:19.460Z,38.40
2018-04-14T21:04:48.418Z,38.80
2018-04-14T21:07:17.170Z,41.80
2018-04-14T21:09:45.406Z,44.07
2018-04-14T21:12:13.780Z,41.73
2018-04-14T21:14:42.476Z,43.87
2018-04-14T21:17:11.464Z,45.20
2018-04-14T21:19:39.480Z,44.30
2018-04-14T21:22:07.603Z,45.23
2018-04-14T21:24:36.156Z,45.67
2018-04-14T21:27:04.507Z,43.20
2018-04-14T21:29:32.576Z,45.50
2018-04-14T21:32:01.265Z,46.80
2018-04-14T21:34:29.270Z,46.43
2018-04-14T21:36:57.368Z,44.87
2018-04-14T21:39:25.554Z,44.37
2018-04-14T21:41:53.971Z,47.93
2018-04-14T21:44:22.910Z,44.90
2018-04-14T21:46:50.882Z,46.73
2018-04-14T21:49:19.419Z,44.87
2018-04-14T21:51:47.588Z,46.10
2018-04-14T21:54:16.386Z,44.30
2018-04-14T21:56:44.567Z,45.67
2018-04-14T21:59:12.638Z,43.10
2018-04-14T22:01:40.616Z,45.20
2018-04-14T22:04:08.711Z,44.07
2018-04-14T22:06:36.768Z,45.13
2018-04-14T22:09:05.041Z,41.60
2018-04-14T22:11:33.415Z,42.77
2018-04-14T22:14:02.209Z,44.70
2018-04-14T22:16:30.426Z,39.63
2018-04-14T22:18:58.905Z,43.53
2018-04-14T22:21:28.788Z,43.37
2018-04-14T22:23:58.554Z,47.70
2018-04-14T22:26:28.008Z,42.07
2018-04-14T22:28:56.017Z,41.83
2018-04-14T22:31:24.100Z,42.07
2018-04-14T22:33:52.334Z,41.37
2018-04-14T22:36:20.474Z,42.37
2018-04-14T22:38:48.858Z,42.30
2018-04-14T22:41:17.037Z,45.40
2018-04-14T22:43:45.199Z,43.20
2018-04-14T22:46:13.957Z,44.27
2018-04-14T22:48:41.925Z,43.07
2018-04-14T22:51:10.028Z,44.27
2018-04-14T22:53:38.102Z,44.90
2018-04-14T22:56:06.200Z,44.87
2018-04-14T22:58:34.311Z,45.00
2018-04-14T23:01:02.371Z,45.93
2018-04-14T23:03:30.656Z,47.17
2018-04-14T23:05:58.667Z,47.93
2018-04-14T23:08:26.798Z,47.27
2018-04-14T23:10:54.839Z,46.90
2018-04-14T23:13:24.387Z,49.80
2018-04-14T23:15:53.446Z,46.90
2018-04-14T23:18:21.756Z,50.37
2018-04-14T23:20:49.779Z,48.97
2018-04-14T23:23:17.801Z,49.90
2018-04-14T23:25:45.918Z,46.93
2018-04-14T23:28:14.048Z,47.07
2018-04-14T23:30:42.940Z,52.10
2018-04-14T23:33:11.158Z,50.07
2018-04-14T23:35:39.153Z,49.57
2018-04-14T23:38:07.673Z,49.27
2018-04-14T23:40:35.772Z,51.43
2018-04-14T23:43:03.810Z,48.90
2018-04-14T23:45:32.025Z,48.70
2018-04-14T23:48:01.097Z,45.97
2018-04-14T23:50:32.066Z,48.43
2018-04-14T23:53:00.979Z,47.53
2018-04-14T23:55:29.082Z,45.97
2018-04-14T23:57:57.177Z,49.50
